sensor_id;sensor_type;location;lat;lon;timestamp;P1;durP1;ratioP1;P2;durP2;ratioP2
20861;SDS011;10591;52.532;13.348;2022-08-18T00:01:13;11.85;;;10.75;;
20861;SDS011;10591;52.532;13.348;2022-08-18T00:03:46;12.03;;;10.93;;
20861;SDS011;10591;52.532;13.348;2022-08-18T00:06:19;12.18;;;10.98;;
20861;SDS011;10591;52.532;13.348;2022-08-18T00:08:50;12.30;;;11.15;;
20861;SDS011;10591;52.532;13.348;2022-08-18T00:11:20;12.23;;;11.12;;
20861;SDS011;10591;52.532;13.348;2022-08-18T00:13:52;11.80;;;10.65;;
20861;SDS011;10591;52.532;13.348;2022-08-18T00:16:22;13.90;;;10.95;;
20861;SDS011;10591;52.532;13.348;2022-08-18T00:18:53;12.30;;;11.15;;
20861;SDS011;10591;52.532;13.348;2022-08-18T00:21:24;12.55;;;11.35;;
20861;SDS011;10591;52.532;13.348;2022-08-18T00:23:55;12.03;;;10.93;;
20861;SDS011;10591;52.532;13.348;2022-08-18T00:26:26;12.20;;;10.98;;
20861;SDS011;10591;52.532;13.348;2022-08-18T00:28:58;12.15;;;10.93;;
20861;SDS011;10591;52.532;13.348;2022-08-18T00:31:28;12.40;;;11.30;;
20861;SDS011;10591;52.532;13.348;2022-08-18T00:33:59;12.00;;;10.90;;
20861;SDS011;10591;52.532;13.348;2022-08-18T00:36:30;13.38;;;11.60;;
20861;SDS011;10591;52.532;13.348;2022-08-18T00:39:03;12.40;;;11.12;;
20861;SDS011;10591;52.532;13.348;2022-08-18T00:41:34;12.28;;;11.05;;
20861;SDS011;10591;52.532;13.348;2022-08-18T00:44:05;11.50;;;10.38;;
20861;SDS011;10591;52.532;13.348;2022-08-18T00:46:36;12.37;;;11.08;;
20861;SDS011;10591;52.532;13.348;2022-08-18T00:49:07;12.43;;;10.80;;
20861;SDS011;10591;52.532;13.348;2022-08-18T00:51:48;12.10;;;10.93;;
20861;SDS011;10591;52.532;13.348;2022-08-18T00:54:27;12.03;;;10.93;;
20861;SDS011;10591;52.532;13.348;2022-08-18T00:56:57;12.37;;;10.72;;
20861;SDS011;10591;52.532;13.348;2022-08-18T00:59:34;11.30;;;10.40;;
20861;SDS011;10591;52.532;13.348;2022-08-18T01:02:06;11.97;;;10.70;;
20861;SDS011;10591;52.532;13.348;2022-08-18T01:04:48;13.90;;;10.78;;
20861;SDS011;10591;52.532;13.348;2022-08-18T01:07:29;12.73;;;11.43;;
20861;SDS011;10591;52.532;13.348;2022-08-18T01:09:57;11.90;;;10.65;;
20861;SDS011;10591;52.532;13.348;2022-08-18T01:12:28;11.63;;;10.53;;
20861;SDS011;10591;52.532;13.348;2022-08-18T01:15:00;11.95;;;10.75;;
20861;SDS011;10591;52.532;13.348;2022-08-18T01:17:31;12.47;;;11.25;;
20861;SDS011;10591;52.532;13.348;2022-08-18T01:20:21;10.85;;;9.90;;
20861;SDS011;10591;52.532;13.348;2022-08-18T01:23:16;11.88;;;10.78;;
20861;SDS011;10591;52.532;13.348;2022-08-18T01:25:45;12.60;;;11.40;;
20861;SDS011;10591;52.532;13.348;2022-08-18T01:28:32;11.75;;;10.55;;
20861;SDS011;10591;52.532;13.348;2022-08-18T01:31:05;11.93;;;10.68;;
20861;SDS011;10591;52.532;13.348;2022-08-18T01:33:39;11.38;;;10.38;;
20861;SDS011;10591;52.532;13.348;2022-08-18T01:36:12;12.00;;;9.90;;
20861;SDS011;10591;52.532;13.348;2022-08-18T01:38:46;12.63;;;10.48;;
20861;SDS011;10591;52.532;13.348;2022-08-18T01:41:19;11.88;;;10.20;;
20861;SDS011;10591;52.532;13.348;2022-08-18T01:43:52;12.85;;;10.75;;
20861;SDS011;10591;52.532;13.348;2022-08-18T01:46:24;11.53;;;10.50;;
20861;SDS011;10591;52.532;13.348;2022-08-18T01:48:56;11.65;;;10.25;;
20861;SDS011;10591;52.532;13.348;2022-08-18T01:51:31;11.10;;;9.93;;
20861;SDS011;10591;52.532;13.348;2022-08-18T01:54:04;10.93;;;9.88;;
20861;SDS011;10591;52.532;13.348;2022-08-18T01:56:34;11.33;;;10.23;;
20861;SDS011;10591;52.532;13.348;2022-08-18T01:59:05;10.65;;;9.70;;
20861;SDS011;10591;52.532;13.348;2022-08-18T02:01:38;11.95;;;10.75;;
20861;SDS011;10591;52.532;13.348;2022-08-18T02:04:11;11.20;;;10.03;;
20861;SDS011;10591;52.532;13.348;2022-08-18T02:06:45;12.73;;;10.23;;
20861;SDS011;10591;52.532;13.348;2022-08-18T02:09:15;11.45;;;10.25;;
20861;SDS011;10591;52.532;13.348;2022-08-18T02:11:47;11.35;;;10.20;;
20861;SDS011;10591;52.532;13.348;2022-08-18T02:14:19;12.18;;;10.25;;
20861;SDS011;10591;52.532;13.348;2022-08-18T02:16:52;11.57;;;10.48;;
20861;SDS011;10591;52.532;13.348;2022-08-18T02:19:27;11.40;;;10.32;;
20861;SDS011;10591;52.532;13.348;2022-08-18T02:21:59;11.60;;;10.32;;
20861;SDS011;10591;52.532;13.348;2022-08-18T02:24:30;11.22;;;10.08;;
20861;SDS011;10591;52.532;13.348;2022-08-18T02:27:00;12.07;;;10.98;;
20861;SDS011;10591;52.532;13.348;2022-08-18T02:29:33;11.97;;;10.13;;
20861;SDS011;10591;52.532;13.348;2022-08-18T02:32:04;11.63;;;10.50;;
20861;SDS011;10591;52.532;13.348;2022-08-18T02:34:36;11.93;;;10.78;;
20861;SDS011;10591;52.532;13.348;2022-08-18T02:37:14;11.68;;;10.45;;
20861;SDS011;10591;52.532;13.348;2022-08-18T02:39:46;11.22;;;10.10;;
20861;SDS011;10591;52.532;13.348;2022-08-18T02:42:20;12.47;;;10.28;;
20861;SDS011;10591;52.532;13.348;2022-08-18T02:44:51;11.95;;;10.72;;
20861;SDS011;10591;52.532;13.348;2022-08-18T02:47:21;12.45;;;10.63;;
20861;SDS011;10591;52.532;13.348;2022-08-18T02:49:52;11.48;;;10.38;;
20861;SDS011;10591;52.532;13.348;2022-08-18T02:52:22;12.90;;;10.35;;
20861;SDS011;10591;52.532;13.348;2022-08-18T02:54:55;11.48;;;10.38;;
20861;SDS011;10591;52.532;13.348;2022-08-18T02:57:25;11.43;;;10.32;;
20861;SDS011;10591;52.532;13.348;2022-08-18T02:59:56;11.48;;;10.28;;
20861;SDS011;10591;52.532;13.348;2022-08-18T03:02:27;11.90;;;10.55;;
20861;SDS011;10591;52.532;13.348;2022-08-18T03:04:59;11.38;;;10.32;;
20861;SDS011;10591;52.532;13.348;2022-08-18T03:07:30;11.63;;;10.53;;
20861;SDS011;10591;52.532;13.348;2022-08-18T03:10:01;11.75;;;10.65;;
20861;SDS011;10591;52.532;13.348;2022-08-18T03:12:33;11.85;;;10.60;;
20861;SDS011;10591;52.532;13.348;2022-08-18T03:15:05;12.53;;;11.20;;
20861;SDS011;10591;52.532;13.348;2022-08-18T03:17:36;12.60;;;11.15;;
20861;SDS011;10591;52.532;13.348;2022-08-18T03:20:07;12.68;;;11.57;;
20861;SDS011;10591;52.532;13.348;2022-08-18T03:22:39;11.83;;;10.72;;
20861;SDS011;10591;52.532;13.348;2022-08-18T03:25:09;11.93;;;10.72;;
20861;SDS011;10591;52.532;13.348;2022-08-18T03:27:42;11.22;;;10.13;;
20861;SDS011;10591;52.532;13.348;2022-08-18T03:30:12;12.68;;;11.38;;
20861;SDS011;10591;52.532;13.348;2022-08-18T03:32:43;12.25;;;11.05;;
20861;SDS011;10591;52.532;13.348;2022-08-18T03:35:15;13.00;;;10.93;;
20861;SDS011;10591;52.532;13.348;2022-08-18T03:37:46;12.30;;;10.98;;
20861;SDS011;10591;52.532;13.348;2022-08-18T03:40:17;11.93;;;10.85;;
20861;SDS011;10591;52.532;13.348;2022-08-18T03:42:48;13.25;;;11.93;;
20861;SDS011;10591;52.532;13.348;2022-08-18T03:45:18;12.45;;;11.12;;
20861;SDS011;10591;52.532;13.348;2022-08-18T03:47:50;12.00;;;10.80;;
20861;SDS011;10591;52.532;13.348;2022-08-18T03:50:21;12.60;;;10.98;;
20861;SDS011;10591;52.532;13.348;2022-08-18T03:52:53;12.90;;;11.65;;
20861;SDS011;10591;52.532;13.348;2022-08-18T03:55:26;12.47;;;11.38;;
20861;SDS011;10591;52.532;13.348;2022-08-18T03:57:57;12.25;;;11.08;;
20861;SDS011;10591;52.532;13.348;2022-08-18T04:00:31;12.23;;;11.08;;
20861;SDS011;10591;52.532;13.348;2022-08-18T04:03:04;13.38;;;11.70;;
20861;SDS011;10591;52.532;13.348;2022-08-18T04:05:37;12.28;;;11.08;;
20861;SDS011;10591;52.532;13.348;2022-08-18T04:08:09;13.00;;;11.68;;
20861;SDS011;10591;52.532;13.348;2022-08-18T04:10:42;12.35;;;11.15;;
20861;SDS011;10591;52.532;13.348;2022-08-18T04:13:13;13.35;;;11.68;;
20861;SDS011;10591;52.532;13.348;2022-08-18T04:15:43;12.37;;;11.18;;
20861;SDS011;10591;52.532;13.348;2022-08-18T04:18:14;12.82;;;11.63;;
20861;SDS011;10591;52.532;13.348;2022-08-18T04:20:45;12.85;;;11.65;;
20861;SDS011;10591;52.532;13.348;2022-08-18T04:23:17;13.68;;;12.37;;
20861;SDS011;10591;52.532;13.348;2022-08-18T04:25:54;13.05;;;11.25;;
20861;SDS011;10591;52.532;13.348;2022-08-18T04:28:28;12.70;;;11.55;;
20861;SDS011;10591;52.532;13.348;2022-08-18T04:31:08;12.95;;;11.60;;
20861;SDS011;10591;52.532;13.348;2022-08-18T04:33:41;13.40;;;12.07;;
20861;SDS011;10591;52.532;13.348;2022-08-18T04:36:12;13.48;;;11.63;;
20861;SDS011;10591;52.532;13.348;2022-08-18T04:38:46;13.72;;;12.33;;
20861;SDS011;10591;52.532;13.348;2022-08-18T04:41:18;12.90;;;11.57;;
20861;SDS011;10591;52.532;13.348;2022-08-18T04:43:50;12.43;;;11.22;;
20861;SDS011;10591;52.532;13.348;2022-08-18T04:46:21;13.35;;;11.95;;
20861;SDS011;10591;52.532;13.348;2022-08-18T04:48:52;13.28;;;11.97;;
20861;SDS011;10591;52.532;13.348;2022-08-18T04:51:27;12.98;;;11.78;;
20861;SDS011;10591;52.532;13.348;2022-08-18T04:54:00;13.18;;;11.88;;
20861;SDS011;10591;52.532;13.348;2022-08-18T04:56:32;12.93;;;11.75;;
20861;SDS011;10591;52.532;13.348;2022-08-18T04:59:05;13.90;;;12.37;;
20861;SDS011;10591;52.532;13.348;2022-08-18T05:01:41;12.95;;;11.85;;
20861;SDS011;10591;52.532;13.348;2022-08-18T05:04:16;14.07;;;12.63;;
20861;SDS011;10591;52.532;13.348;2022-08-18T05:06:48;17.30;;;12.65;;
20861;SDS011;10591;52.532;13.348;2022-08-18T05:09:19;13.48;;;12.18;;
20861;SDS011;10591;52.532;13.348;2022-08-18T05:11:54;13.45;;;12.15;;
20861;SDS011;10591;52.532;13.348;2022-08-18T05:14:24;14.50;;;11.80;;
20861;SDS011;10591;52.532;13.348;2022-08-18T05:16:58;14.10;;;12.82;;
20861;SDS011;10591;52.532;13.348;2022-08-18T05:19:29;14.15;;;12.40;;
20861;SDS011;10591;52.532;13.348;2022-08-18T05:22:01;13.10;;;11.88;;
20861;SDS011;10591;52.532;13.348;2022-08-18T05:24:33;13.93;;;11.90;;
20861;SDS011;10591;52.532;13.348;2022-08-18T05:27:05;14.03;;;12.58;;
20861;SDS011;10591;52.532;13.348;2022-08-18T05:29:36;14.70;;;12.58;;
20861;SDS011;10591;52.532;13.348;2022-08-18T05:32:09;13.32;;;11.93;;
20861;SDS011;10591;52.532;13.348;2022-08-18T05:34:41;14.10;;;12.80;;
20861;SDS011;10591;52.532;13.348;2022-08-18T05:37:40;15.55;;;13.58;;
20861;SDS011;10591;52.532;13.348;2022-08-18T05:39:53;16.07;;;13.58;;
20861;SDS011;10591;52.532;13.348;2022-08-18T05:42:29;14.18;;;12.82;;
20861;SDS011;10591;52.532;13.348;2022-08-18T05:45:07;14.70;;;13.18;;
20861;SDS011;10591;52.532;13.348;2022-08-18T05:47:38;13.98;;;12.60;;
20861;SDS011;10591;52.532;13.348;2022-08-18T05:50:10;15.18;;;12.95;;
20861;SDS011;10591;52.532;13.348;2022-08-18T05:52:52;14.38;;;12.85;;
20861;SDS011;10591;52.532;13.348;2022-08-18T05:55:30;14.15;;;12.70;;
20861;SDS011;10591;52.532;13.348;2022-08-18T05:58:22;13.25;;;11.95;;
20861;SDS011;10591;52.532;13.348;2022-08-18T06:01:02;14.45;;;12.93;;
20861;SDS011;10591;52.532;13.348;2022-08-18T06:03:47;13.88;;;12.47;;
20861;SDS011;10591;52.532;13.348;2022-08-18T06:06:20;13.80;;;12.58;;
20861;SDS011;10591;52.532;13.348;2022-08-18T06:11:48;17.45;;;14.00;;
20861;SDS011;10591;52.532;13.348;2022-08-18T06:14:20;16.07;;;14.43;;
20861;SDS011;10591;52.532;13.348;2022-08-18T06:16:59;14.38;;;11.78;;
20861;SDS011;10591;52.532;13.348;2022-08-18T06:19:35;12.93;;;11.63;;
20861;SDS011;10591;52.532;13.348;2022-08-18T06:24:50;14.53;;;12.37;;
20861;SDS011;10591;52.532;13.348;2022-08-18T06:30:26;12.50;;;11.40;;
20861;SDS011;10591;52.532;13.348;2022-08-18T06:35:47;13.43;;;12.07;;
20861;SDS011;10591;52.532;13.348;2022-08-18T06:43:54;14.23;;;12.33;;
20861;SDS011;10591;52.532;13.348;2022-08-18T06:46:43;14.30;;;12.85;;
20861;SDS011;10591;52.532;13.348;2022-08-18T06:52:24;15.10;;;12.50;;
20861;SDS011;10591;52.532;13.348;2022-08-18T06:55:09;14.05;;;12.60;;
20861;SDS011;10591;52.532;13.348;2022-08-18T06:57:54;13.28;;;11.90;;
20861;SDS011;10591;52.532;13.348;2022-08-18T07:00:30;13.55;;;12.15;;
20861;SDS011;10591;52.532;13.348;2022-08-18T07:03:10;14.28;;;12.98;;
20861;SDS011;10591;52.532;13.348;2022-08-18T07:05:59;14.50;;;13.03;;
20861;SDS011;10591;52.532;13.348;2022-08-18T07:08:42;14.40;;;13.05;;
20861;SDS011;10591;52.532;13.348;2022-08-18T07:13:53;15.00;;;12.95;;
20861;SDS011;10591;52.532;13.348;2022-08-18T07:19:06;14.38;;;12.55;;
20861;SDS011;10591;52.532;13.348;2022-08-18T07:21:39;15.80;;;12.93;;
20861;SDS011;10591;52.532;13.348;2022-08-18T07:24:20;14.23;;;12.73;;
20861;SDS011;10591;52.532;13.348;2022-08-18T07:26:58;18.98;;;12.82;;
20861;SDS011;10591;52.532;13.348;2022-08-18T07:29:37;15.88;;;13.20;;
20861;SDS011;10591;52.532;13.348;2022-08-18T07:32:15;16.35;;;13.13;;
20861;SDS011;10591;52.532;13.348;2022-08-18T07:34:49;15.88;;;13.08;;
20861;SDS011;10591;52.532;13.348;2022-08-18T07:37:29;14.70;;;13.10;;
20861;SDS011;10591;52.532;13.348;2022-08-18T07:40:04;19.30;;;12.55;;
20861;SDS011;10591;52.532;13.348;2022-08-18T07:42:38;13.85;;;12.47;;
20861;SDS011;10591;52.532;13.348;2022-08-18T07:45:25;18.00;;;12.90;;
20861;SDS011;10591;52.532;13.348;2022-08-18T07:48:02;13.65;;;12.45;;
20861;SDS011;10591;52.532;13.348;2022-08-18T07:56:18;15.18;;;12.58;;
20861;SDS011;10591;52.532;13.348;2022-08-18T07:58:52;15.88;;;12.90;;
20861;SDS011;10591;52.532;13.348;2022-08-18T08:07:08;14.15;;;12.60;;
20861;SDS011;10591;52.532;13.348;2022-08-18T08:12:42;13.18;;;11.70;;
20861;SDS011;10591;52.532;13.348;2022-08-18T08:16:03;13.00;;;11.83;;
20861;SDS011;10591;52.532;13.348;2022-08-18T08:18:00;13.58;;;12.30;;
20861;SDS011;10591;52.532;13.348;2022-08-18T08:20:42;14.53;;;12.18;;
20861;SDS011;10591;52.532;13.348;2022-08-18T08:23:30;14.50;;;11.55;;
20861;SDS011;10591;52.532;13.348;2022-08-18T08:28:50;15.90;;;14.15;;
20861;SDS011;10591;52.532;13.348;2022-08-18T08:31:45;15.88;;;14.18;;
20861;SDS011;10591;52.532;13.348;2022-08-18T08:34:38;15.28;;;13.72;;
20861;SDS011;10591;52.532;13.348;2022-08-18T08:37:08;16.65;;;13.25;;
20861;SDS011;10591;52.532;13.348;2022-08-18T08:39:54;21.40;;;13.90;;
20861;SDS011;10591;52.532;13.348;2022-08-18T08:42:36;17.60;;;13.65;;
20861;SDS011;10591;52.532;13.348;2022-08-18T08:45:22;16.02;;;13.85;;
20861;SDS011;10591;52.532;13.348;2022-08-18T08:50:46;16.70;;;13.80;;
20861;SDS011;10591;52.532;13.348;2022-08-18T08:53:20;15.43;;;13.70;;
20861;SDS011;10591;52.532;13.348;2022-08-18T08:55:52;15.53;;;13.75;;
20861;SDS011;10591;52.532;13.348;2022-08-18T08:58:36;15.38;;;13.80;;
20861;SDS011;10591;52.532;13.348;2022-08-18T09:01:33;15.00;;;13.22;;
20861;SDS011;10591;52.532;13.348;2022-08-18T09:04:20;13.93;;;12.33;;
20861;SDS011;10591;52.532;13.348;2022-08-18T09:07:01;16.07;;;12.30;;
20861;SDS011;10591;52.532;13.348;2022-08-18T09:09:43;14.75;;;12.28;;
20861;SDS011;10591;52.532;13.348;2022-08-18T09:15:11;19.07;;;12.43;;
20861;SDS011;10591;52.532;13.348;2022-08-18T09:23:20;19.10;;;13.13;;
20861;SDS011;10591;52.532;13.348;2022-08-18T09:25:54;17.17;;;13.68;;
20861;SDS011;10591;52.532;13.348;2022-08-18T09:36:37;15.75;;;13.80;;
20861;SDS011;10591;52.532;13.348;2022-08-18T09:39:28;14.63;;;13.00;;
20861;SDS011;10591;52.532;13.348;2022-08-18T09:45:56;15.32;;;13.80;;
20861;SDS011;10591;52.532;13.348;2022-08-18T09:53:52;13.98;;;12.68;;
20861;SDS011;10591;52.532;13.348;2022-08-18T10:02:09;14.25;;;13.00;;
20861;SDS011;10591;52.532;13.348;2022-08-18T10:04:43;14.18;;;12.80;;
20861;SDS011;10591;52.532;13.348;2022-08-18T10:07:27;17.52;;;13.22;;
20861;SDS011;10591;52.532;13.348;2022-08-18T10:10:06;14.07;;;12.58;;
20861;SDS011;10591;52.532;13.348;2022-08-18T10:33:06;12.23;;;11.05;;
20861;SDS011;10591;52.532;13.348;2022-08-18T10:38:28;15.28;;;12.07;;
20861;SDS011;10591;52.532;13.348;2022-08-18T10:43:51;14.18;;;12.00;;
20861;SDS011;10591;52.532;13.348;2022-08-18T10:46:26;12.90;;;11.50;;
20861;SDS011;10591;52.532;13.348;2022-08-18T10:49:14;13.50;;;10.58;;
20861;SDS011;10591;52.532;13.348;2022-08-18T10:51:51;13.22;;;11.48;;
20861;SDS011;10591;52.532;13.348;2022-08-18T10:57:31;12.80;;;11.35;;
20861;SDS011;10591;52.532;13.348;2022-08-18T11:00:08;13.53;;;12.23;;
20861;SDS011;10591;52.532;13.348;2022-08-18T11:05:24;12.80;;;11.55;;
20861;SDS011;10591;52.532;13.348;2022-08-18T11:07:59;12.65;;;11.45;;
20861;SDS011;10591;52.532;13.348;2022-08-18T11:10:42;12.63;;;11.33;;
20861;SDS011;10591;52.532;13.348;2022-08-18T11:13:20;12.65;;;11.48;;
20861;SDS011;10591;52.532;13.348;2022-08-18T11:15:58;11.85;;;10.58;;
20861;SDS011;10591;52.532;13.348;2022-08-18T11:18:50;15.35;;;11.57;;
20861;SDS011;10591;52.532;13.348;2022-08-18T11:26:51;12.50;;;11.35;;
20861;SDS011;10591;52.532;13.348;2022-08-18T11:29:26;14.40;;;11.38;;
20861;SDS011;10591;52.532;13.348;2022-08-18T11:32:07;13.40;;;11.28;;
20861;SDS011;10591;52.532;13.348;2022-08-18T11:34:41;13.13;;;11.83;;
20861;SDS011;10591;52.532;13.348;2022-08-18T11:40:20;12.63;;;11.18;;
20861;SDS011;10591;52.532;13.348;2022-08-18T11:43:16;13.22;;;11.55;;
20861;SDS011;10591;52.532;13.348;2022-08-18T11:45:34;12.63;;;11.00;;
20861;SDS011;10591;52.532;13.348;2022-08-18T11:51:02;12.60;;;11.38;;
20861;SDS011;10591;52.532;13.348;2022-08-18T11:53:56;11.40;;;10.30;;
20861;SDS011;10591;52.532;13.348;2022-08-18T11:56:29;11.93;;;10.72;;
20861;SDS011;10591;52.532;13.348;2022-08-18T11:59:06;13.25;;;11.15;;
20861;SDS011;10591;52.532;13.348;2022-08-18T12:02:05;14.75;;;10.72;;
20861;SDS011;10591;52.532;13.348;2022-08-18T12:04:40;11.40;;;10.20;;
20861;SDS011;10591;52.532;13.348;2022-08-18T12:07:12;17.77;;;10.25;;
20861;SDS011;10591;52.532;13.348;2022-08-18T12:09:48;11.28;;;10.20;;
20861;SDS011;10591;52.532;13.348;2022-08-18T12:12:48;11.63;;;10.53;;
20861;SDS011;10591;52.532;13.348;2022-08-18T12:17:59;10.72;;;9.83;;
20861;SDS011;10591;52.532;13.348;2022-08-18T12:20:29;11.75;;;10.40;;
20861;SDS011;10591;52.532;13.348;2022-08-18T12:23:02;10.43;;;9.43;;
20861;SDS011;10591;52.532;13.348;2022-08-18T12:25:33;10.43;;;9.33;;
20861;SDS011;10591;52.532;13.348;2022-08-18T12:28:05;10.80;;;9.80;;
20861;SDS011;10591;52.532;13.348;2022-08-18T12:30:38;10.58;;;9.68;;
20861;SDS011;10591;52.532;13.348;2022-08-18T12:33:10;11.53;;;10.43;;
20861;SDS011;10591;52.532;13.348;2022-08-18T12:35:41;11.30;;;10.20;;
20861;SDS011;10591;52.532;13.348;2022-08-18T12:38:13;11.25;;;9.98;;
20861;SDS011;10591;52.532;13.348;2022-08-18T12:40:45;10.53;;;9.65;;
20861;SDS011;10591;52.532;13.348;2022-08-18T12:43:16;11.63;;;10.20;;
20861;SDS011;10591;52.532;13.348;2022-08-18T12:45:47;10.45;;;9.43;;
20861;SDS011;10591;52.532;13.348;2022-08-18T12:48:19;10.13;;;9.23;;
20861;SDS011;10591;52.532;13.348;2022-08-18T12:50:50;10.55;;;9.50;;
20861;SDS011;10591;52.532;13.348;2022-08-18T12:53:23;10.13;;;9.23;;
20861;SDS011;10591;52.532;13.348;2022-08-18T12:55:55;10.30;;;9.30;;
20861;SDS011;10591;52.532;13.348;2022-08-18T12:58:27;10.60;;;9.60;;
20861;SDS011;10591;52.532;13.348;2022-08-18T13:00:58;11.40;;;9.70;;
20861;SDS011;10591;52.532;13.348;2022-08-18T13:03:30;11.50;;;10.50;;
20861;SDS011;10591;52.532;13.348;2022-08-18T13:06:03;10.98;;;9.83;;
20861;SDS011;10591;52.532;13.348;2022-08-18T13:08:33;10.45;;;9.28;;
20861;SDS011;10591;52.532;13.348;2022-08-18T13:11:06;10.38;;;9.45;;
20861;SDS011;10591;52.532;13.348;2022-08-18T13:13:40;10.13;;;9.20;;
20861;SDS011;10591;52.532;13.348;2022-08-18T13:16:11;9.85;;;8.88;;
20861;SDS011;10591;52.532;13.348;2022-08-18T13:18:44;10.30;;;9.40;;
20861;SDS011;10591;52.532;13.348;2022-08-18T13:21:17;9.48;;;8.58;;
20861;SDS011;10591;52.532;13.348;2022-08-18T13:23:47;10.75;;;9.75;;
20861;SDS011;10591;52.532;13.348;2022-08-18T13:26:24;10.32;;;8.98;;
20861;SDS011;10591;52.532;13.348;2022-08-18T13:28:58;10.45;;;9.40;;
20861;SDS011;10591;52.532;13.348;2022-08-18T13:31:34;10.13;;;9.15;;
20861;SDS011;10591;52.532;13.348;2022-08-18T13:34:07;9.98;;;9.18;;
20861;SDS011;10591;52.532;13.348;2022-08-18T13:36:39;10.45;;;9.58;;
20861;SDS011;10591;52.532;13.348;2022-08-18T13:39:17;9.63;;;8.80;;
20861;SDS011;10591;52.532;13.348;2022-08-18T13:41:52;9.70;;;8.80;;
20861;SDS011;10591;52.532;13.348;2022-08-18T13:44:25;10.18;;;9.25;;
20861;SDS011;10591;52.532;13.348;2022-08-18T13:46:56;9.80;;;8.90;;
20861;SDS011;10591;52.532;13.348;2022-08-18T13:49:28;9.63;;;8.70;;
20861;SDS011;10591;52.532;13.348;2022-08-18T13:51:59;8.63;;;7.90;;
20861;SDS011;10591;52.532;13.348;2022-08-18T13:54:32;9.48;;;8.68;;
20861;SDS011;10591;52.532;13.348;2022-08-18T13:57:04;9.63;;;8.75;;
20861;SDS011;10591;52.532;13.348;2022-08-18T13:59:35;10.08;;;9.18;;
20861;SDS011;10591;52.532;13.348;2022-08-18T14:02:08;9.33;;;8.35;;
20861;SDS011;10591;52.532;13.348;2022-08-18T14:04:40;10.95;;;9.00;;
20861;SDS011;10591;52.532;13.348;2022-08-18T14:07:12;9.25;;;8.40;;
20861;SDS011;10591;52.532;13.348;2022-08-18T14:09:45;9.25;;;8.20;;
20861;SDS011;10591;52.532;13.348;2022-08-18T14:12:19;9.70;;;8.68;;
20861;SDS011;10591;52.532;13.348;2022-08-18T14:14:53;10.13;;;9.25;;
20861;SDS011;10591;52.532;13.348;2022-08-18T14:17:26;8.30;;;7.53;;
20861;SDS011;10591;52.532;13.348;2022-08-18T14:19:57;8.03;;;7.33;;
20861;SDS011;10591;52.532;13.348;2022-08-18T14:22:48;9.10;;;8.20;;
20861;SDS011;10591;52.532;13.348;2022-08-18T14:25:38;8.35;;;7.65;;
20861;SDS011;10591;52.532;13.348;2022-08-18T14:28:33;8.45;;;7.75;;
20861;SDS011;10591;52.532;13.348;2022-08-18T14:31:02;8.60;;;7.80;;
20861;SDS011;10591;52.532;13.348;2022-08-18T14:33:34;8.58;;;7.78;;
20861;SDS011;10591;52.532;13.348;2022-08-18T14:36:06;9.00;;;8.25;;
20861;SDS011;10591;52.532;13.348;2022-08-18T14:38:37;9.13;;;8.35;;
20861;SDS011;10591;52.532;13.348;2022-08-18T14:41:10;10.15;;;9.10;;
20861;SDS011;10591;52.532;13.348;2022-08-18T14:43:42;9.80;;;9.00;;
20861;SDS011;10591;52.532;13.348;2022-08-18T14:46:15;10.23;;;9.33;;
20861;SDS011;10591;52.532;13.348;2022-08-18T14:48:46;10.48;;;9.43;;
20861;SDS011;10591;52.532;13.348;2022-08-18T14:51:17;10.70;;;9.75;;
20861;SDS011;10591;52.532;13.348;2022-08-18T14:53:52;10.68;;;9.58;;
20861;SDS011;10591;52.532;13.348;2022-08-18T14:56:23;10.45;;;9.45;;
20861;SDS011;10591;52.532;13.348;2022-08-18T14:58:56;10.30;;;9.00;;
20861;SDS011;10591;52.532;13.348;2022-08-18T15:01:28;10.45;;;8.38;;
20861;SDS011;10591;52.532;13.348;2022-08-18T15:04:01;12.00;;;8.00;;
20861;SDS011;10591;52.532;13.348;2022-08-18T15:06:37;11.10;;;7.78;;
20861;SDS011;10591;52.532;13.348;2022-08-18T15:09:09;8.33;;;7.58;;
20861;SDS011;10591;52.532;13.348;2022-08-18T15:11:40;10.30;;;7.55;;
20861;SDS011;10591;52.532;13.348;2022-08-18T15:14:13;9.48;;;7.62;;
20861;SDS011;10591;52.532;13.348;2022-08-18T15:16:47;11.95;;;7.85;;
20861;SDS011;10591;52.532;13.348;2022-08-18T15:19:18;10.00;;;8.33;;
20861;SDS011;10591;52.532;13.348;2022-08-18T15:21:52;9.68;;;7.97;;
20861;SDS011;10591;52.532;13.348;2022-08-18T15:24:42;9.13;;;8.08;;
20861;SDS011;10591;52.532;13.348;2022-08-18T15:27:32;8.68;;;7.87;;
20861;SDS011;10591;52.532;13.348;2022-08-18T15:30:10;9.13;;;8.20;;
20861;SDS011;10591;52.532;13.348;2022-08-18T15:32:46;11.45;;;7.83;;
20861;SDS011;10591;52.532;13.348;2022-08-18T15:35:19;8.38;;;7.58;;
20861;SDS011;10591;52.532;13.348;2022-08-18T15:37:50;8.55;;;7.70;;
20861;SDS011;10591;52.532;13.348;2022-08-18T15:40:23;8.65;;;7.75;;
20861;SDS011;10591;52.532;13.348;2022-08-18T15:42:57;8.20;;;7.45;;
20861;SDS011;10591;52.532;13.348;2022-08-18T15:45:30;7.60;;;6.90;;
20861;SDS011;10591;52.532;13.348;2022-08-18T15:48:08;10.35;;;7.70;;
20861;SDS011;10591;52.532;13.348;2022-08-18T15:50:42;10.03;;;7.75;;
20861;SDS011;10591;52.532;13.348;2022-08-18T15:53:19;8.60;;;7.60;;
20861;SDS011;10591;52.532;13.348;2022-08-18T15:55:52;8.53;;;7.72;;
20861;SDS011;10591;52.532;13.348;2022-08-18T15:58:25;8.30;;;7.50;;
20861;SDS011;10591;52.532;13.348;2022-08-18T16:00:57;8.48;;;7.67;;
20861;SDS011;10591;52.532;13.348;2022-08-18T16:03:28;9.20;;;7.72;;
20861;SDS011;10591;52.532;13.348;2022-08-18T16:06:01;10.18;;;7.85;;
20861;SDS011;10591;52.532;13.348;2022-08-18T16:08:33;8.75;;;8.05;;
20861;SDS011;10591;52.532;13.348;2022-08-18T16:11:06;9.00;;;8.18;;
20861;SDS011;10591;52.532;13.348;2022-08-18T16:13:40;8.53;;;7.72;;
20861;SDS011;10591;52.532;13.348;2022-08-18T16:16:15;8.30;;;7.60;;
20861;SDS011;10591;52.532;13.348;2022-08-18T16:18:49;7.92;;;7.22;;
20861;SDS011;10591;52.532;13.348;2022-08-18T16:21:21;7.75;;;7.15;;
20861;SDS011;10591;52.532;13.348;2022-08-18T16:23:58;7.45;;;6.85;;
20861;SDS011;10591;52.532;13.348;2022-08-18T16:26:27;7.50;;;6.90;;
20861;SDS011;10591;52.532;13.348;2022-08-18T16:28:59;7.97;;;7.17;;
20861;SDS011;10591;52.532;13.348;2022-08-18T16:31:29;8.45;;;7.65;;
20861;SDS011;10591;52.532;13.348;2022-08-18T16:34:01;8.88;;;8.05;;
20861;SDS011;10591;52.532;13.348;2022-08-18T16:36:35;9.23;;;8.35;;
20861;SDS011;10591;52.532;13.348;2022-08-18T16:39:09;13.53;;;9.00;;
20861;SDS011;10591;52.532;13.348;2022-08-18T16:41:38;13.38;;;8.33;;
20861;SDS011;10591;52.532;13.348;2022-08-18T16:44:12;9.75;;;8.40;;
20861;SDS011;10591;52.532;13.348;2022-08-18T16:46:44;9.83;;;8.73;;
20861;SDS011;10591;52.532;13.348;2022-08-18T16:49:15;10.25;;;9.03;;
20861;SDS011;10591;52.532;13.348;2022-08-18T16:51:47;9.75;;;8.75;;
20861;SDS011;10591;52.532;13.348;2022-08-18T16:54:17;8.73;;;7.83;;
20861;SDS011;10591;52.532;13.348;2022-08-18T16:56:48;10.20;;;9.23;;
20861;SDS011;10591;52.532;13.348;2022-08-18T16:59:19;10.28;;;9.25;;
20861;SDS011;10591;52.532;13.348;2022-08-18T17:02:07;11.38;;;8.90;;